sensor_id;sensor_type;location;lat;lon;timestamp;temperature;humidity
33815;DHT22;20121;51.910;8.406;2023-03-20T00:01:27;9.10;99.90
33815;DHT22;20121;51.910;8.406;2023-03-20T00:03:55;9.10;99.90
33815;DHT22;20121;51.910;8.406;2023-03-20T00:06:26;9.00;99.90
33815;DHT22;20121;51.910;8.406;2023-03-20T00:08:53;9.00;99.90
33815;DHT22;20121;51.910;8.406;2023-03-20T00:13:48;8.90;99.90
33815;DHT22;20121;51.910;8.406;2023-03-20T00:16:13;8.90;99.90
33815;DHT22;20121;51.910;8.406;2023-03-20T00:18:39;8.90;99.90
33815;DHT22;20121;51.910;8.406;2023-03-20T00:21:14;8.80;99.90
33815;DHT22;20121;51.910;8.406;2023-03-20T00:23:41;8.80;99.90
33815;DHT22;20121;51.910;8.406;2023-03-20T00:26:11;8.80;99.90
33815;DHT22;20121;51.910;8.406;2023-03-20T00:28:42;8.70;99.90
33815;DHT22;20121;51.910;8.406;2023-03-20T00:31:24;8.70;99.90
33815;DHT22;20121;51.910;8.406;2023-03-20T00:33:56;8.70;99.90
33815;DHT22;20121;51.910;8.406;2023-03-20T00:36:23;8.70;99.90
33815;DHT22;20121;51.910;8.406;2023-03-20T00:38:49;8.70;99.90
33815;DHT22;20121;51.910;8.406;2023-03-20T00:41:25;8.70;99.90
33815;DHT22;20121;51.910;8.406;2023-03-20T00:44:01;8.70;99.90
33815;DHT22;20121;51.910;8.406;2023-03-20T00:46:37;8.90;99.90
33815;DHT22;20121;51.910;8.406;2023-03-20T00:49:03;8.70;99.90
33815;DHT22;20121;51.910;8.406;2023-03-20T00:51:29;8.70;99.90
33815;DHT22;20121;51.910;8.406;2023-03-20T00:53:55;9.10;99.90
33815;DHT22;20121;51.910;8.406;2023-03-20T00:58:52;8.80;99.90
33815;DHT22;20121;51.910;8.406;2023-03-20T01:01:18;8.80;99.90
33815;DHT22;20121;51.910;8.406;2023-03-20T01:03:44;8.80;99.90
33815;DHT22;20121;51.910;8.406;2023-03-20T01:06:11;8.80;99.90
33815;DHT22;20121;51.910;8.406;2023-03-20T01:08:37;8.90;99.90
33815;DHT22;20121;51.910;8.406;2023-03-20T01:11:03;8.90;99.90
33815;DHT22;20121;51.910;8.406;2023-03-20T01:13:30;8.90;99.90
33815;DHT22;20121;51.910;8.406;2023-03-20T01:15:57;8.90;99.90
33815;DHT22;20121;51.910;8.406;2023-03-20T01:18:25;8.90;99.90
33815;DHT22;20121;51.910;8.406;2023-03-20T01:20:51;8.90;99.90
33815;DHT22;20121;51.910;8.406;2023-03-20T01:23:18;8.90;99.90
33815;DHT22;20121;51.910;8.406;2023-03-20T01:25:44;8.90;99.90
33815;DHT22;20121;51.910;8.406;2023-03-20T01:28:16;8.90;99.90
33815;DHT22;20121;51.910;8.406;2023-03-20T01:30:43;9.00;99.90
33815;DHT22;20121;51.910;8.406;2023-03-20T01:33:23;8.90;99.90
33815;DHT22;20121;51.910;8.406;2023-03-20T01:35:51;8.90;99.90
33815;DHT22;20121;51.910;8.406;2023-03-20T01:38:20;9.10;99.90
33815;DHT22;20121;51.910;8.406;2023-03-20T01:40:55;8.90;99.90
33815;DHT22;20121;51.910;8.406;2023-03-20T01:43:22;8.90;99.90
33815;DHT22;20121;51.910;8.406;2023-03-20T01:48:20;8.90;99.90
33815;DHT22;20121;51.910;8.406;2023-03-20T01:50:48;8.90;99.90
33815;DHT22;20121;51.910;8.406;2023-03-20T01:53:23;8.90;99.90
33815;DHT22;20121;51.910;8.406;2023-03-20T01:55:52;9.00;99.90
33815;DHT22;20121;51.910;8.406;2023-03-20T01:58:23;9.00;99.90
33815;DHT22;20121;51.910;8.406;2023-03-20T02:00:50;9.00;99.90
33815;DHT22;20121;51.910;8.406;2023-03-20T02:03:16;9.00;99.90
33815;DHT22;20121;51.910;8.406;2023-03-20T02:05:43;9.00;99.90
33815;DHT22;20121;51.910;8.406;2023-03-20T02:08:17;9.00;99.90
33815;DHT22;20121;51.910;8.406;2023-03-20T02:10:45;9.00;99.90
33815;DHT22;20121;51.910;8.406;2023-03-20T02:13:11;9.00;99.90
33815;DHT22;20121;51.910;8.406;2023-03-20T02:16:02;9.00;99.90
33815;DHT22;20121;51.910;8.406;2023-03-20T02:18:29;9.00;99.90
33815;DHT22;20121;51.910;8.406;2023-03-20T02:21:20;9.00;99.90
33815;DHT22;20121;51.910;8.406;2023-03-20T02:40:57;9.00;99.90
33815;DHT22;20121;51.910;8.406;2023-03-20T02:43:56;9.00;99.90
33815;DHT22;20121;51.910;8.406;2023-03-20T02:52:35;9.00;99.90
33815;DHT22;20121;51.910;8.406;2023-03-20T02:57:50;9.00;99.90
33815;DHT22;20121;51.910;8.406;2023-03-20T03:03:26;9.00;99.90
33815;DHT22;20121;51.910;8.406;2023-03-20T03:05:54;9.00;99.90
33815;DHT22;20121;51.910;8.406;2023-03-20T03:08:24;9.00;99.90
33815;DHT22;20121;51.910;8.406;2023-03-20T03:11:00;9.00;99.90
33815;DHT22;20121;51.910;8.406;2023-03-20T03:13:30;9.00;99.90
33815;DHT22;20121;51.910;8.406;2023-03-20T03:15:59;9.00;99.90
33815;DHT22;20121;51.910;8.406;2023-03-20T03:18:28;9.00;99.90
33815;DHT22;20121;51.910;8.406;2023-03-20T03:20:58;9.00;99.90
33815;DHT22;20121;51.910;8.406;2023-03-20T03:23:42;8.60;99.90
33815;DHT22;20121;51.910;8.406;2023-03-20T03:26:26;9.00;99.90
33815;DHT22;20121;51.910;8.406;2023-03-20T03:29:03;9.00;99.90
33815;DHT22;20121;51.910;8.406;2023-03-20T03:31:30;9.00;99.90
33815;DHT22;20121;51.910;8.406;2023-03-20T03:33:58;9.00;99.90
33815;DHT22;20121;51.910;8.406;2023-03-20T03:44:45;9.00;99.90
33815;DHT22;20121;51.910;8.406;2023-03-20T03:47:20;8.90;99.90
33815;DHT22;20121;51.910;8.406;2023-03-20T03:49:56;8.90;99.90
33815;DHT22;20121;51.910;8.406;2023-03-20T03:52:23;8.90;99.90
33815;DHT22;20121;51.910;8.406;2023-03-20T03:54:58;8.80;99.90
33815;DHT22;20121;51.910;8.406;2023-03-20T04:00:34;8.90;99.90
33815;DHT22;20121;51.910;8.406;2023-03-20T04:03:02;8.80;99.90
33815;DHT22;20121;51.910;8.406;2023-03-20T04:05:30;8.80;99.90
33815;DHT22;20121;51.910;8.406;2023-03-20T04:07:59;8.80;99.90
33815;DHT22;20121;51.910;8.406;2023-03-20T04:10:25;8.80;99.90
33815;DHT22;20121;51.910;8.406;2023-03-20T04:12:51;8.80;99.90
33815;DHT22;20121;51.910;8.406;2023-03-20T04:15:17;8.80;99.90
33815;DHT22;20121;51.910;8.406;2023-03-20T04:17:52;8.70;99.90
33815;DHT22;20121;51.910;8.406;2023-03-20T04:20:18;8.70;99.90
33815;DHT22;20121;51.910;8.406;2023-03-20T04:22:47;8.70;99.90
33815;DHT22;20121;51.910;8.406;2023-03-20T04:25:21;8.70;99.90
33815;DHT22;20121;51.910;8.406;2023-03-20T04:27:47;8.70;99.90
33815;DHT22;20121;51.910;8.406;2023-03-20T04:30:13;8.70;99.90
33815;DHT22;20121;51.910;8.406;2023-03-20T04:32:39;8.60;99.90
33815;DHT22;20121;51.910;8.406;2023-03-20T04:35:05;8.30;99.90
33815;DHT22;20121;51.910;8.406;2023-03-20T04:37:31;8.60;99.90
33815;DHT22;20121;51.910;8.406;2023-03-20T04:39:57;8.60;99.90
33815;DHT22;20121;51.910;8.406;2023-03-20T04:42:22;8.60;99.90
33815;DHT22;20121;51.910;8.406;2023-03-20T04:44:48;8.80;99.90
33815;DHT22;20121;51.910;8.406;2023-03-20T04:47:14;8.60;99.90
33815;DHT22;20121;51.910;8.406;2023-03-20T04:49:39;8.60;99.90
33815;DHT22;20121;51.910;8.406;2023-03-20T04:52:05;8.50;99.90
33815;DHT22;20121;51.910;8.406;2023-03-20T04:54:31;8.50;99.90
33815;DHT22;20121;51.910;8.406;2023-03-20T04:56:56;8.50;99.90
33815;DHT22;20121;51.910;8.406;2023-03-20T04:59:22;8.50;99.90
33815;DHT22;20121;51.910;8.406;2023-03-20T05:01:48;8.50;99.90
33815;DHT22;20121;51.910;8.406;2023-03-20T05:04:13;8.50;99.90
33815;DHT22;20121;51.910;8.406;2023-03-20T05:06:39;8.50;99.90
33815;DHT22;20121;51.910;8.406;2023-03-20T05:09:05;8.50;99.90
33815;DHT22;20121;51.910;8.406;2023-03-20T05:11:30;8.50;99.90
33815;DHT22;20121;51.910;8.406;2023-03-20T05:13:56;8.50;99.90
33815;DHT22;20121;51.910;8.406;2023-03-20T05:16:22;8.50;99.90
33815;DHT22;20121;51.910;8.406;2023-03-20T05:18:48;8.50;99.90
33815;DHT22;20121;51.910;8.406;2023-03-20T05:21:13;8.40;99.90
33815;DHT22;20121;51.910;8.406;2023-03-20T05:23:39;8.40;99.90
33815;DHT22;20121;51.910;8.406;2023-03-20T05:26:05;8.40;99.90
33815;DHT22;20121;51.910;8.406;2023-03-20T05:30:57;8.40;99.90
33815;DHT22;20121;51.910;8.406;2023-03-20T05:33:23;8.40;99.90
33815;DHT22;20121;51.910;8.406;2023-03-20T05:35:49;8.40;99.90
33815;DHT22;20121;51.910;8.406;2023-03-20T05:38:14;8.40;99.90
33815;DHT22;20121;51.910;8.406;2023-03-20T05:40:40;8.40;99.90
33815;DHT22;20121;51.910;8.406;2023-03-20T05:43:06;8.40;99.90
33815;DHT22;20121;51.910;8.406;2023-03-20T05:45:32;8.40;99.90
33815;DHT22;20121;51.910;8.406;2023-03-20T05:47:58;8.40;99.90
33815;DHT22;20121;51.910;8.406;2023-03-20T05:50:24;8.40;99.90
33815;DHT22;20121;51.910;8.406;2023-03-20T05:52:49;8.40;99.90
33815;DHT22;20121;51.910;8.406;2023-03-20T05:55:15;8.50;99.90
33815;DHT22;20121;51.910;8.406;2023-03-20T05:57:41;8.40;99.90
33815;DHT22;20121;51.910;8.406;2023-03-20T06:00:08;8.40;99.90
33815;DHT22;20121;51.910;8.406;2023-03-20T06:02:35;8.40;99.90
33815;DHT22;20121;51.910;8.406;2023-03-20T06:05:01;8.40;99.90
33815;DHT22;20121;51.910;8.406;2023-03-20T06:07:27;8.50;99.90
33815;DHT22;20121;51.910;8.406;2023-03-20T06:09:52;8.40;99.90
33815;DHT22;20121;51.910;8.406;2023-03-20T06:12:18;8.40;99.90
33815;DHT22;20121;51.910;8.406;2023-03-20T06:14:44;8.40;99.90
33815;DHT22;20121;51.910;8.406;2023-03-20T06:17:10;8.40;99.90
33815;DHT22;20121;51.910;8.406;2023-03-20T06:19:35;8.40;99.90
33815;DHT22;20121;51.910;8.406;2023-03-20T06:22:02;8.50;99.90
33815;DHT22;20121;51.910;8.406;2023-03-20T06:24:28;8.50;99.90
33815;DHT22;20121;51.910;8.406;2023-03-20T06:26:53;8.50;99.90
33815;DHT22;20121;51.910;8.406;2023-03-20T06:29:19;8.50;99.90
33815;DHT22;20121;51.910;8.406;2023-03-20T06:31:45;8.50;99.90
33815;DHT22;20121;51.910;8.406;2023-03-20T06:34:11;8.50;99.90
33815;DHT22;20121;51.910;8.406;2023-03-20T06:36:36;8.60;99.90
33815;DHT22;20121;51.910;8.406;2023-03-20T06:39:03;8.60;99.90
33815;DHT22;20121;51.910;8.406;2023-03-20T06:41:29;8.60;99.90
33815;DHT22;20121;51.910;8.406;2023-03-20T06:43:54;8.60;99.90
33815;DHT22;20121;51.910;8.406;2023-03-20T06:46:21;8.60;99.90
33815;DHT22;20121;51.910;8.406;2023-03-20T06:48:47;8.60;99.90
33815;DHT22;20121;51.910;8.406;2023-03-20T06:51:13;8.60;99.90
33815;DHT22;20121;51.910;8.406;2023-03-20T06:53:39;8.70;99.90
33815;DHT22;20121;51.910;8.406;2023-03-20T06:56:07;8.60;99.90
33815;DHT22;20121;51.910;8.406;2023-03-20T06:58:33;8.70;99.90
33815;DHT22;20121;51.910;8.406;2023-03-20T07:00:59;8.60;99.90
33815;DHT22;20121;51.910;8.406;2023-03-20T07:03:24;8.70;99.90
33815;DHT22;20121;51.910;8.406;2023-03-20T07:05:50;8.60;99.90
33815;DHT22;20121;51.910;8.406;2023-03-20T07:08:16;8.60;99.90
33815;DHT22;20121;51.910;8.406;2023-03-20T07:10:42;8.30;99.90
33815;DHT22;20121;51.910;8.406;2023-03-20T07:13:08;8.60;99.90
33815;DHT22;20121;51.910;8.406;2023-03-20T07:15:34;8.60;99.90
33815;DHT22;20121;51.910;8.406;2023-03-20T07:18:00;8.70;99.90
33815;DHT22;20121;51.910;8.406;2023-03-20T07:20:26;8.70;99.90
33815;DHT22;20121;51.910;8.406;2023-03-20T07:22:52;8.60;99.90
33815;DHT22;20121;51.910;8.406;2023-03-20T07:25:20;8.40;99.90
33815;DHT22;20121;51.910;8.406;2023-03-20T07:27:46;8.60;99.90
33815;DHT22;20121;51.910;8.406;2023-03-20T07:30:16;8.70;99.90
33815;DHT22;20121;51.910;8.406;2023-03-20T07:32:43;8.70;99.90
33815;DHT22;20121;51.910;8.406;2023-03-20T07:35:09;8.80;99.90
33815;DHT22;20121;51.910;8.406;2023-03-20T07:37:35;8.80;99.90
33815;DHT22;20121;51.910;8.406;2023-03-20T07:40:01;8.80;99.90
33815;DHT22;20121;51.910;8.406;2023-03-20T07:42:26;11.10;99.90
33815;DHT22;20121;51.910;8.406;2023-03-20T07:44:52;8.90;99.90
33815;DHT22;20121;51.910;8.406;2023-03-20T07:47:17;8.90;99.90
33815;DHT22;20121;51.910;8.406;2023-03-20T07:49:43;9.00;99.90
33815;DHT22;20121;51.910;8.406;2023-03-20T07:52:09;9.00;99.90
33815;DHT22;20121;51.910;8.406;2023-03-20T07:54:34;9.00;99.90
33815;DHT22;20121;51.910;8.406;2023-03-20T07:57:00;9.10;99.90
33815;DHT22;20121;51.910;8.406;2023-03-20T07:59:26;9.10;99.90
33815;DHT22;20121;51.910;8.406;2023-03-20T08:01:51;9.10;99.90
33815;DHT22;20121;51.910;8.406;2023-03-20T08:04:17;9.10;99.90
33815;DHT22;20121;51.910;8.406;2023-03-20T08:06:45;9.10;99.90
33815;DHT22;20121;51.910;8.406;2023-03-20T08:09:11;9.10;99.90
33815;DHT22;20121;51.910;8.406;2023-03-20T08:11:36;9.10;99.90
33815;DHT22;20121;51.910;8.406;2023-03-20T08:14:02;9.10;99.90
33815;DHT22;20121;51.910;8.406;2023-03-20T08:16:28;9.10;99.90
33815;DHT22;20121;51.910;8.406;2023-03-20T08:18:53;9.20;99.90
33815;DHT22;20121;51.910;8.406;2023-03-20T08:21:28;9.20;99.90
33815;DHT22;20121;51.910;8.406;2023-03-20T08:23:54;9.20;99.90
33815;DHT22;20121;51.910;8.406;2023-03-20T08:26:21;9.40;99.90
33815;DHT22;20121;51.910;8.406;2023-03-20T08:28:47;9.40;99.90
33815;DHT22;20121;51.910;8.406;2023-03-20T08:31:12;9.40;99.90
33815;DHT22;20121;51.910;8.406;2023-03-20T08:33:38;9.50;99.90
33815;DHT22;20121;51.910;8.406;2023-03-20T08:36:04;9.60;99.90
33815;DHT22;20121;51.910;8.406;2023-03-20T08:38:30;9.70;99.90
33815;DHT22;20121;51.910;8.406;2023-03-20T08:40:55;9.80;99.90
33815;DHT22;20121;51.910;8.406;2023-03-20T08:43:21;9.90;99.90
33815;DHT22;20121;51.910;8.406;2023-03-20T08:45:47;10.00;99.90
33815;DHT22;20121;51.910;8.406;2023-03-20T08:48:13;10.20;99.90
33815;DHT22;20121;51.910;8.406;2023-03-20T08:50:38;10.20;99.90
33815;DHT22;20121;51.910;8.406;2023-03-20T08:53:04;10.20;99.90
33815;DHT22;20121;51.910;8.406;2023-03-20T08:55:31;10.30;99.90
33815;DHT22;20121;51.910;8.406;2023-03-20T08:57:57;10.60;99.90
33815;DHT22;20121;51.910;8.406;2023-03-20T09:00:23;10.20;99.90
33815;DHT22;20121;51.910;8.406;2023-03-20T09:02:49;10.30;99.90
33815;DHT22;20121;51.910;8.406;2023-03-20T09:05:15;10.60;99.90
33815;DHT22;20121;51.910;8.406;2023-03-20T09:07:41;10.30;99.90
33815;DHT22;20121;51.910;8.406;2023-03-20T09:10:07;10.20;99.90
33815;DHT22;20121;51.910;8.406;2023-03-20T09:12:33;9.80;99.90
33815;DHT22;20121;51.910;8.406;2023-03-20T09:15:00;10.30;99.90
33815;DHT22;20121;51.910;8.406;2023-03-20T09:17:26;10.10;99.90
33815;DHT22;20121;51.910;8.406;2023-03-20T09:19:52;10.20;99.90
33815;DHT22;20121;51.910;8.406;2023-03-20T09:22:17;10.10;99.90
33815;DHT22;20121;51.910;8.406;2023-03-20T09:24:44;10.30;99.90
33815;DHT22;20121;51.910;8.406;2023-03-20T09:27:09;10.30;99.90
33815;DHT22;20121;51.910;8.406;2023-03-20T09:29:39;10.40;99.90
33815;DHT22;20121;51.910;8.406;2023-03-20T09:32:05;10.50;99.90
33815;DHT22;20121;51.910;8.406;2023-03-20T09:34:31;10.50;99.90
33815;DHT22;20121;51.910;8.406;2023-03-20T09:36:56;10.50;99.90
33815;DHT22;20121;51.910;8.406;2023-03-20T09:39:22;10.60;99.90
33815;DHT22;20121;51.910;8.406;2023-03-20T09:41:49;10.60;99.90
33815;DHT22;20121;51.910;8.406;2023-03-20T09:47:13;10.70;99.90
33815;DHT22;20121;51.910;8.406;2023-03-20T09:49:59;10.70;99.90
33815;DHT22;20121;51.910;8.406;2023-03-20T09:55:20;11.00;99.90
33815;DHT22;20121;51.910;8.406;2023-03-20T09:58:00;10.70;99.90
33815;DHT22;20121;51.910;8.406;2023-03-20T10:00:28;10.70;99.90
33815;DHT22;20121;51.910;8.406;2023-03-20T10:03:04;10.70;99.90
33815;DHT22;20121;51.910;8.406;2023-03-20T10:05:36;10.70;99.90
33815;DHT22;20121;51.910;8.406;2023-03-20T10:08:06;10.80;99.90
33815;DHT22;20121;51.910;8.406;2023-03-20T10:10:51;10.90;99.90
33815;DHT22;20121;51.910;8.406;2023-03-20T10:13:34;11.00;99.90
33815;DHT22;20121;51.910;8.406;2023-03-20T10:21:44;10.90;99.90
33815;DHT22;20121;51.910;8.406;2023-03-20T10:24:38;10.80;99.90
33815;DHT22;20121;51.910;8.406;2023-03-20T10:30:05;10.80;99.90
33815;DHT22;20121;51.910;8.406;2023-03-20T10:32:43;10.80;99.90
33815;DHT22;20121;51.910;8.406;2023-03-20T10:40:43;10.90;99.90
33815;DHT22;20121;51.910;8.406;2023-03-20T10:43:17;10.90;99.90
33815;DHT22;20121;51.910;8.406;2023-03-20T10:46:03;10.90;99.90
33815;DHT22;20121;51.910;8.406;2023-03-20T10:48:38;10.90;99.90
33815;DHT22;20121;51.910;8.406;2023-03-20T10:51:10;10.90;99.90
33815;DHT22;20121;51.910;8.406;2023-03-20T10:56:19;11.00;99.90
33815;DHT22;20121;51.910;8.406;2023-03-20T10:58:56;11.00;99.90
33815;DHT22;20121;51.910;8.406;2023-03-20T11:01:22;11.10;99.90
33815;DHT22;20121;51.910;8.406;2023-03-20T11:03:48;11.20;99.90
33815;DHT22;20121;51.910;8.406;2023-03-20T11:06:26;11.20;99.90
33815;DHT22;20121;51.910;8.406;2023-03-20T11:08:53;11.30;99.90
33815;DHT22;20121;51.910;8.406;2023-03-20T11:11:27;11.30;99.90
33815;DHT22;20121;51.910;8.406;2023-03-20T11:13:54;11.50;99.90
33815;DHT22;20121;51.910;8.406;2023-03-20T11:16:24;11.40;99.90
33815;DHT22;20121;51.910;8.406;2023-03-20T11:18:51;11.60;99.90
33815;DHT22;20121;51.910;8.406;2023-03-20T11:21:24;11.70;99.90
33815;DHT22;20121;51.910;8.406;2023-03-20T11:23:51;11.70;99.90
33815;DHT22;20121;51.910;8.406;2023-03-20T11:26:37;11.70;99.90
33815;DHT22;20121;51.910;8.406;2023-03-20T11:29:15;11.70;99.90
33815;DHT22;20121;51.910;8.406;2023-03-20T11:31:43;11.60;99.90
33815;DHT22;20121;51.910;8.406;2023-03-20T11:36:58;11.50;99.90
33815;DHT22;20121;51.910;8.406;2023-03-20T11:39:26;11.50;99.90
33815;DHT22;20121;51.910;8.406;2023-03-20T11:41:54;11.40;99.90
33815;DHT22;20121;51.910;8.406;2023-03-20T11:44:32;11.40;99.90
33815;DHT22;20121;51.910;8.406;2023-03-20T11:47:10;11.50;99.90
33815;DHT22;20121;51.910;8.406;2023-03-20T11:49:47;11.50;99.90
33815;DHT22;20121;51.910;8.406;2023-03-20T11:52:19;11.70;99.90
33815;DHT22;20121;51.910;8.406;2023-03-20T11:54:53;11.80;99.90
33815;DHT22;20121;51.910;8.406;2023-03-20T11:57:39;11.90;99.90
33815;DHT22;20121;51.910;8.406;2023-03-20T12:02:44;11.70;99.90
33815;DHT22;20121;51.910;8.406;2023-03-20T12:05:28;11.70;99.90
33815;DHT22;20121;51.910;8.406;2023-03-20T12:08:01;11.90;99.90
33815;DHT22;20121;51.910;8.406;2023-03-20T12:10:33;11.90;99.90
33815;DHT22;20121;51.910;8.406;2023-03-20T12:13:05;12.10;99.90
33815;DHT22;20121;51.910;8.406;2023-03-20T12:15:39;12.20;99.90
33815;DHT22;20121;51.910;8.406;2023-03-20T12:18:26;12.20;99.90
33815;DHT22;20121;51.910;8.406;2023-03-20T12:24:24;12.50;99.90
33815;DHT22;20121;51.910;8.406;2023-03-20T12:29:51;12.40;99.90
33815;DHT22;20121;51.910;8.406;2023-03-20T12:32:26;12.30;99.90
33815;DHT22;20121;51.910;8.406;2023-03-20T12:35:17;12.30;99.90
33815;DHT22;20121;51.910;8.406;2023-03-20T12:37:44;12.20;99.90
33815;DHT22;20121;51.910;8.406;2023-03-20T12:40:17;12.20;99.90
33815;DHT22;20121;51.910;8.406;2023-03-20T12:45:24;12.90;99.90
33815;DHT22;20121;51.910;8.406;2023-03-20T12:50:38;12.30;99.90
33815;DHT22;20121;51.910;8.406;2023-03-20T12:53:29;12.30;99.90
33815;DHT22;20121;51.910;8.406;2023-03-20T12:59:06;12.10;99.90
33815;DHT22;20121;51.910;8.406;2023-03-20T13:01:46;12.00;99.90
33815;DHT22;20121;51.910;8.406;2023-03-20T13:06:59;11.80;99.90
33815;DHT22;20121;51.910;8.406;2023-03-20T13:09:51;11.80;99.90
33815;DHT22;20121;51.910;8.406;2023-03-20T13:15:13;11.50;99.90
33815;DHT22;20121;51.910;8.406;2023-03-20T13:18:05;11.40;99.90
33815;DHT22;20121;51.910;8.406;2023-03-20T13:20:51;11.40;99.90
33815;DHT22;20121;51.910;8.406;2023-03-20T13:23:29;11.40;99.90
33815;DHT22;20121;51.910;8.406;2023-03-20T13:26:13;11.30;99.90
33815;DHT22;20121;51.910;8.406;2023-03-20T13:39:39;11.10;99.90
33815;DHT22;20121;51.910;8.406;2023-03-20T13:42:15;11.00;99.90
33815;DHT22;20121;51.910;8.406;2023-03-20T13:44:42;11.00;99.90
33815;DHT22;20121;51.910;8.406;2023-03-20T13:47:17;10.90;99.90
33815;DHT22;20121;51.910;8.406;2023-03-20T13:49:51;10.90;99.90
33815;DHT22;20121;51.910;8.406;2023-03-20T13:52:24;10.90;99.90
33815;DHT22;20121;51.910;8.406;2023-03-20T14:01:04;11.00;99.90
33815;DHT22;20121;51.910;8.406;2023-03-20T14:03:29;11.10;99.90
33815;DHT22;20121;51.910;8.406;2023-03-20T14:05:56;11.10;99.90
33815;DHT22;20121;51.910;8.406;2023-03-20T14:08:30;11.10;99.90
33815;DHT22;20121;51.910;8.406;2023-03-20T14:11:13;11.10;99.90
33815;DHT22;20121;51.910;8.406;2023-03-20T14:14:16;11.10;99.90
33815;DHT22;20121;51.910;8.406;2023-03-20T14:16:44;11.10;99.90
33815;DHT22;20121;51.910;8.406;2023-03-20T14:19:24;11.10;99.90
33815;DHT22;20121;51.910;8.406;2023-03-20T14:21:52;11.10;99.90
33815;DHT22;20121;51.910;8.406;2023-03-20T14:24:19;11.10;99.90
33815;DHT22;20121;51.910;8.406;2023-03-20T14:26:49;11.20;99.90
33815;DHT22;20121;51.910;8.406;2023-03-20T14:31:47;11.20;99.90
33815;DHT22;20121;51.910;8.406;2023-03-20T14:34:21;11.20;99.90
33815;DHT22;20121;51.910;8.406;2023-03-20T14:37:01;11.20;99.90
33815;DHT22;20121;51.910;8.406;2023-03-20T14:39:44;11.20;99.90
33815;DHT22;20121;51.910;8.406;2023-03-20T14:42:35;11.20;99.90
33815;DHT22;20121;51.910;8.406;2023-03-20T14:45:30;11.00;99.90
33815;DHT22;20121;51.910;8.406;2023-03-20T14:48:16;11.00;99.90
33815;DHT22;20121;51.910;8.406;2023-03-20T14:51:19;11.00;99.90
33815;DHT22;20121;51.910;8.406;2023-03-20T14:53:54;10.90;99.90
33815;DHT22;20121;51.910;8.406;2023-03-20T14:56:36;10.90;99.90
33815;DHT22;20121;51.910;8.406;2023-03-20T14:59:04;10.60;99.90
33815;DHT22;20121;51.910;8.406;2023-03-20T15:07:25;10.90;99.90
33815;DHT22;20121;51.910;8.406;2023-03-20T15:09:54;10.90;99.90
33815;DHT22;20121;51.910;8.406;2023-03-20T15:12:25;11.50;99.90
33815;DHT22;20121;51.910;8.406;2023-03-20T15:17:43;10.90;99.90
33815;DHT22;20121;51.910;8.406;2023-03-20T15:20:19;10.90;99.90
33815;DHT22;20121;51.910;8.406;2023-03-20T15:22:53;10.90;99.90
33815;DHT22;20121;51.910;8.406;2023-03-20T15:25:21;10.70;99.90
33815;DHT22;20121;51.910;8.406;2023-03-20T15:27:47;10.80;99.90
33815;DHT22;20121;51.910;8.406;2023-03-20T15:30:17;10.70;99.90
33815;DHT22;20121;51.910;8.406;2023-03-20T15:32:43;10.70;99.90
33815;DHT22;20121;51.910;8.406;2023-03-20T15:35:13;10.50;99.90
33815;DHT22;20121;51.910;8.406;2023-03-20T15:37:41;10.60;99.90
33815;DHT22;20121;51.910;8.406;2023-03-20T15:40:13;10.20;99.90
33815;DHT22;20121;51.910;8.406;2023-03-20T15:42:42;10.50;99.90
33815;DHT22;20121;51.910;8.406;2023-03-20T15:45:26;10.30;99.90
33815;DHT22;20121;51.910;8.406;2023-03-20T15:47:59;10.40;99.90
33815;DHT22;20121;51.910;8.406;2023-03-20T15:50:25;10.40;99.90
33815;DHT22;20121;51.910;8.406;2023-03-20T15:52:51;10.30;99.90
33815;DHT22;20121;51.910;8.406;2023-03-20T15:55:22;12.90;99.90
33815;DHT22;20121;51.910;8.406;2023-03-20T15:57:49;10.20;99.90
33815;DHT22;20121;51.910;8.406;2023-03-20T16:00:24;10.20;99.90
33815;DHT22;20121;51.910;8.406;2023-03-20T16:02:52;10.20;99.90
33815;DHT22;20121;51.910;8.406;2023-03-20T16:05:19;10.40;99.90
33815;DHT22;20121;51.910;8.406;2023-03-20T16:07:47;10.10;99.90
33815;DHT22;20121;51.910;8.406;2023-03-20T16:10:16;10.00;99.90
33815;DHT22;20121;51.910;8.406;2023-03-20T16:12:50;9.90;99.90
33815;DHT22;20121;51.910;8.406;2023-03-20T16:15:18;9.50;99.90
33815;DHT22;20121;51.910;8.406;2023-03-20T16:17:44;9.80;99.90
33815;DHT22;20121;51.910;8.406;2023-03-20T16:20:19;9.80;99.90
33815;DHT22;20121;51.910;8.406;2023-03-20T16:22:47;9.70;99.90
33815;DHT22;20121;51.910;8.406;2023-03-20T16:25:15;9.40;99.90
33815;DHT22;20121;51.910;8.406;2023-03-20T16:27:41;9.20;99.90
33815;DHT22;20121;51.910;8.406;2023-03-20T16:30:18;9.50;99.90
33815;DHT22;20121;51.910;8.406;2023-03-20T16:32:49;9.50;99.90
33815;DHT22;20121;51.910;8.406;2023-03-20T16:35:23;9.60;99.90
33815;DHT22;20121;51.910;8.406;2023-03-20T16:38:01;9.40;99.90
33815;DHT22;20121;51.910;8.406;2023-03-20T16:40:28;9.40;99.90
33815;DHT22;20121;51.910;8.406;2023-03-20T16:43:01;9.40;99.90
33815;DHT22;20121;51.910;8.406;2023-03-20T16:45:30;9.30;99.90
33815;DHT22;20121;51.910;8.406;2023-03-20T16:48:37;9.30;99.90
33815;DHT22;20121;51.910;8.406;2023-03-20T16:53:44;9.10;99.90
33815;DHT22;20121;51.910;8.406;2023-03-20T16:56:13;9.10;99.90
33815;DHT22;20121;51.910;8.406;2023-03-20T16:58:40;9.10;99.90
33815;DHT22;20121;51.910;8.406;2023-03-20T17:01:14;9.00;99.90
33815;DHT22;20121;51.910;8.406;2023-03-20T17:08:55;9.00;99.90
33815;DHT22;20121;51.910;8.406;2023-03-20T17:11:33;8.90;99.90
33815;DHT22;20121;51.910;8.406;2023-03-20T17:13:59;8.90;99.90
33815;DHT22;20121;51.910;8.406;2023-03-20T17:16:25;8.90;99.90
33815;DHT22;20121;51.910;8.406;2023-03-20T17:21:23;8.80;99.90
33815;DHT22;20121;51.910;8.406;2023-03-20T17:23:49;8.80;99.90
33815;DHT22;20121;51.910;8.406;2023-03-20T17:26:15;8.80;99.90
33815;DHT22;20121;51.910;8.406;2023-03-20T17:28:41;8.80;99.90
33815;DHT22;20121;51.910;8.406;2023-03-20T17:31:13;8.80;99.90
33815;DHT22;20121;51.910;8.406;2023-03-20T17:33:40;8.70;99.90
33815;DHT22;20121;51.910;8.406;2023-03-20T17:36:26;8.70;99.90
33815;DHT22;20121;51.910;8.406;2023-03-20T17:38:56;8.70;99.90
33815;DHT22;20121;51.910;8.406;2023-03-20T17:41:24;8.70;99.90
33815;DHT22;20121;51.910;8.406;2023-03-20T17:43:50;8.70;99.90
33815;DHT22;20121;51.910;8.406;2023-03-20T17:48:48;8.70;99.90
33815;DHT22;20121;51.910;8.406;2023-03-20T17:51:14;8.70;99.90
33815;DHT22;20121;51.910;8.406;2023-03-20T17:53:40;8.60;99.90
33815;DHT22;20121;51.910;8.406;2023-03-20T17:56:13;8.60;99.90
33815;DHT22;20121;51.910;8.406;2023-03-20T17:58:40;8.60;99.90
33815;DHT22;20121;51.910;8.406;2023-03-20T18:01:09;8.60;99.90
33815;DHT22;20121;51.910;8.406;2023-03-20T18:03:35;8.50;99.90
33815;DHT22;20121;51.910;8.406;2023-03-20T18:06:01;8.50;99.90
33815;DHT22;20121;51.910;8.406;2023-03-20T18:08:27;8.50;99.90
33815;DHT22;20121;51.910;8.406;2023-03-20T18:10:53;8.50;99.90
33815;DHT22;20121;51.910;8.406;2023-03-20T18:13:20;8.50;99.90
33815;DHT22;20121;51.910;8.406;2023-03-20T18:15:51;8.50;99.90
33815;DHT22;20121;51.910;8.406;2023-03-20T18:18:17;8.40;99.90